sensor_id;sensor_type;location;lat;lon;timestamp;temperature;humidity
12006;DHT22;6062;47.294;12.182;2023-04-25T00:01:31;3.20;61.60
12006;DHT22;6062;47.294;12.182;2023-04-25T00:04:01;3.20;61.80
12006;DHT22;6062;47.294;12.182;2023-04-25T00:06:28;3.20;62.10
12006;DHT22;6062;47.294;12.182;2023-04-25T00:08:55;3.20;62.00
12006;DHT22;6062;47.294;12.182;2023-04-25T00:11:22;3.20;61.80
12006;DHT22;6062;47.294;12.182;2023-04-25T00:13:48;3.20;62.00
12006;DHT22;6062;47.294;12.182;2023-04-25T00:16:16;3.20;62.00
12006;DHT22;6062;47.294;12.182;2023-04-25T00:18:42;3.10;62.10
12006;DHT22;6062;47.294;12.182;2023-04-25T00:21:08;3.20;62.20
12006;DHT22;6062;47.294;12.182;2023-04-25T00:23:35;3.10;62.00
12006;DHT22;6062;47.294;12.182;2023-04-25T00:26:04;3.10;61.90
12006;DHT22;6062;47.294;12.182;2023-04-25T00:28:30;3.10;62.00
12006;DHT22;6062;47.294;12.182;2023-04-25T00:30:55;3.00;62.00
12006;DHT22;6062;47.294;12.182;2023-04-25T00:33:21;3.00;62.00
12006;DHT22;6062;47.294;12.182;2023-04-25T00:35:47;3.00;62.20
12006;DHT22;6062;47.294;12.182;2023-04-25T00:38:12;3.00;62.20
12006;DHT22;6062;47.294;12.182;2023-04-25T00:40:38;2.90;62.30
12006;DHT22;6062;47.294;12.182;2023-04-25T00:43:04;2.90;62.30
12006;DHT22;6062;47.294;12.182;2023-04-25T00:45:30;2.90;62.50
12006;DHT22;6062;47.294;12.182;2023-04-25T00:47:56;2.90;62.60
12006;DHT22;6062;47.294;12.182;2023-04-25T00:50:23;2.90;62.60
12006;DHT22;6062;47.294;12.182;2023-04-25T00:52:49;2.80;62.60
12006;DHT22;6062;47.294;12.182;2023-04-25T00:55:15;2.90;62.60
12006;DHT22;6062;47.294;12.182;2023-04-25T00:57:42;2.80;62.60
12006;DHT22;6062;47.294;12.182;2023-04-25T01:00:09;2.80;62.70
12006;DHT22;6062;47.294;12.182;2023-04-25T01:02:36;2.80;62.70
12006;DHT22;6062;47.294;12.182;2023-04-25T01:05:03;2.80;62.70
12006;DHT22;6062;47.294;12.182;2023-04-25T01:07:29;2.80;62.80
12006;DHT22;6062;47.294;12.182;2023-04-25T01:09:55;2.80;62.80
12006;DHT22;6062;47.294;12.182;2023-04-25T01:12:22;2.70;62.70
12006;DHT22;6062;47.294;12.182;2023-04-25T01:14:49;2.70;62.80
12006;DHT22;6062;47.294;12.182;2023-04-25T01:17:15;2.70;62.80
12006;DHT22;6062;47.294;12.182;2023-04-25T01:19:43;2.70;62.90
12006;DHT22;6062;47.294;12.182;2023-04-25T01:22:08;2.70;62.90
12006;DHT22;6062;47.294;12.182;2023-04-25T01:24:36;2.70;63.00
12006;DHT22;6062;47.294;12.182;2023-04-25T01:27:03;2.60;63.00
12006;DHT22;6062;47.294;12.182;2023-04-25T01:29:30;2.60;63.10
12006;DHT22;6062;47.294;12.182;2023-04-25T01:31:57;2.60;63.30
12006;DHT22;6062;47.294;12.182;2023-04-25T01:34:24;2.60;63.30
12006;DHT22;6062;47.294;12.182;2023-04-25T01:36:51;2.60;63.20
12006;DHT22;6062;47.294;12.182;2023-04-25T01:39:18;2.60;63.20
12006;DHT22;6062;47.294;12.182;2023-04-25T01:41:45;2.60;63.40
12006;DHT22;6062;47.294;12.182;2023-04-25T01:44:11;2.60;63.40
12006;DHT22;6062;47.294;12.182;2023-04-25T01:46:37;2.60;63.50
12006;DHT22;6062;47.294;12.182;2023-04-25T01:49:03;2.50;63.50
12006;DHT22;6062;47.294;12.182;2023-04-25T01:51:29;2.50;63.50
12006;DHT22;6062;47.294;12.182;2023-04-25T01:53:56;2.60;63.70
12006;DHT22;6062;47.294;12.182;2023-04-25T01:56:22;2.50;63.60
12006;DHT22;6062;47.294;12.182;2023-04-25T01:58:48;2.60;63.70
12006;DHT22;6062;47.294;12.182;2023-04-25T02:01:14;2.60;63.80
12006;DHT22;6062;47.294;12.182;2023-04-25T02:03:40;2.50;63.60
12006;DHT22;6062;47.294;12.182;2023-04-25T02:06:06;2.50;63.60
12006;DHT22;6062;47.294;12.182;2023-04-25T02:08:32;2.50;63.60
12006;DHT22;6062;47.294;12.182;2023-04-25T02:10:57;2.50;63.60
12006;DHT22;6062;47.294;12.182;2023-04-25T02:13:23;2.50;63.60
12006;DHT22;6062;47.294;12.182;2023-04-25T02:15:49;2.50;64.20
12006;DHT22;6062;47.294;12.182;2023-04-25T02:18:15;2.50;63.60
12006;DHT22;6062;47.294;12.182;2023-04-25T02:20:43;2.50;63.50
12006;DHT22;6062;47.294;12.182;2023-04-25T02:23:09;2.50;63.60
12006;DHT22;6062;47.294;12.182;2023-04-25T02:25:35;2.50;63.60
12006;DHT22;6062;47.294;12.182;2023-04-25T02:28:01;2.50;63.70
12006;DHT22;6062;47.294;12.182;2023-04-25T02:30:26;2.50;63.80
12006;DHT22;6062;47.294;12.182;2023-04-25T02:32:52;2.50;63.80
12006;DHT22;6062;47.294;12.182;2023-04-25T02:35:18;2.50;64.00
12006;DHT22;6062;47.294;12.182;2023-04-25T02:37:44;2.50;64.00
12006;DHT22;6062;47.294;12.182;2023-04-25T02:40:10;2.50;63.90
12006;DHT22;6062;47.294;12.182;2023-04-25T02:42:36;2.50;63.90
12006;DHT22;6062;47.294;12.182;2023-04-25T02:45:02;2.50;63.70
12006;DHT22;6062;47.294;12.182;2023-04-25T02:47:29;2.50;63.60
12006;DHT22;6062;47.294;12.182;2023-04-25T02:49:55;2.50;63.60
12006;DHT22;6062;47.294;12.182;2023-04-25T02:52:21;2.50;63.60
12006;DHT22;6062;47.294;12.182;2023-04-25T02:54:46;2.50;63.60
12006;DHT22;6062;47.294;12.182;2023-04-25T02:57:12;2.50;63.70
12006;DHT22;6062;47.294;12.182;2023-04-25T02:59:38;2.50;63.70
12006;DHT22;6062;47.294;12.182;2023-04-25T03:02:04;2.40;63.70
12006;DHT22;6062;47.294;12.182;2023-04-25T03:04:29;2.40;63.80
12006;DHT22;6062;47.294;12.182;2023-04-25T03:06:55;2.30;64.00
12006;DHT22;6062;47.294;12.182;2023-04-25T03:09:21;2.30;64.10
12006;DHT22;6062;47.294;12.182;2023-04-25T03:11:47;2.30;64.20
12006;DHT22;6062;47.294;12.182;2023-04-25T03:14:13;2.30;64.30
12006;DHT22;6062;47.294;12.182;2023-04-25T03:16:39;2.20;64.40
12006;DHT22;6062;47.294;12.182;2023-04-25T03:19:05;2.20;64.50
12006;DHT22;6062;47.294;12.182;2023-04-25T03:21:34;2.20;64.60
12006;DHT22;6062;47.294;12.182;2023-04-25T03:24:02;2.10;64.90
12006;DHT22;6062;47.294;12.182;2023-04-25T03:26:29;2.10;64.90
12006;DHT22;6062;47.294;12.182;2023-04-25T03:28:55;2.00;65.00
12006;DHT22;6062;47.294;12.182;2023-04-25T03:31:20;2.00;65.10
12006;DHT22;6062;47.294;12.182;2023-04-25T03:33:47;1.90;65.00
12006;DHT22;6062;47.294;12.182;2023-04-25T03:36:13;1.90;65.00
12006;DHT22;6062;47.294;12.182;2023-04-25T03:38:39;1.80;65.20
12006;DHT22;6062;47.294;12.182;2023-04-25T03:41:06;1.80;65.40
12006;DHT22;6062;47.294;12.182;2023-04-25T03:43:32;1.80;65.70
12006;DHT22;6062;47.294;12.182;2023-04-25T03:45:58;1.80;65.80
12006;DHT22;6062;47.294;12.182;2023-04-25T03:48:25;1.80;65.90
12006;DHT22;6062;47.294;12.182;2023-04-25T03:50:52;1.80;65.90
12006;DHT22;6062;47.294;12.182;2023-04-25T03:53:18;1.80;66.00
12006;DHT22;6062;47.294;12.182;2023-04-25T03:55:43;1.70;66.00
12006;DHT22;6062;47.294;12.182;2023-04-25T03:58:09;1.70;66.20
12006;DHT22;6062;47.294;12.182;2023-04-25T04:00:35;1.70;66.40
12006;DHT22;6062;47.294;12.182;2023-04-25T04:03:02;1.70;66.60
12006;DHT22;6062;47.294;12.182;2023-04-25T04:05:27;1.70;66.80
12006;DHT22;6062;47.294;12.182;2023-04-25T04:07:54;1.70;66.80
12006;DHT22;6062;47.294;12.182;2023-04-25T04:10:20;1.70;67.00
12006;DHT22;6062;47.294;12.182;2023-04-25T04:12:45;1.70;67.00
12006;DHT22;6062;47.294;12.182;2023-04-25T04:15:11;1.70;67.00
12006;DHT22;6062;47.294;12.182;2023-04-25T04:17:37;1.70;67.10
12006;DHT22;6062;47.294;12.182;2023-04-25T04:20:04;1.70;67.00
12006;DHT22;6062;47.294;12.182;2023-04-25T04:22:31;1.80;67.10
12006;DHT22;6062;47.294;12.182;2023-04-25T04:24:57;1.80;67.10
12006;DHT22;6062;47.294;12.182;2023-04-25T04:27:23;1.80;67.10
12006;DHT22;6062;47.294;12.182;2023-04-25T04:29:49;1.80;67.10
12006;DHT22;6062;47.294;12.182;2023-04-25T04:32:17;1.90;67.20
12006;DHT22;6062;47.294;12.182;2023-04-25T04:34:43;1.90;67.20
12006;DHT22;6062;47.294;12.182;2023-04-25T04:37:09;1.90;67.10
12006;DHT22;6062;47.294;12.182;2023-04-25T04:39:36;1.90;67.20
12006;DHT22;6062;47.294;12.182;2023-04-25T04:42:02;2.00;67.30
12006;DHT22;6062;47.294;12.182;2023-04-25T04:44:29;2.00;67.30
12006;DHT22;6062;47.294;12.182;2023-04-25T04:46:58;2.00;67.30
12006;DHT22;6062;47.294;12.182;2023-04-25T04:49:24;2.10;67.20
12006;DHT22;6062;47.294;12.182;2023-04-25T04:51:50;2.10;67.00
12006;DHT22;6062;47.294;12.182;2023-04-25T04:54:16;2.20;66.90
12006;DHT22;6062;47.294;12.182;2023-04-25T04:56:42;2.20;66.80
12006;DHT22;6062;47.294;12.182;2023-04-25T04:59:08;2.20;66.70
12006;DHT22;6062;47.294;12.182;2023-04-25T05:01:34;2.30;66.70
12006;DHT22;6062;47.294;12.182;2023-04-25T05:04:01;2.30;66.70
12006;DHT22;6062;47.294;12.182;2023-04-25T05:06:28;2.40;66.70
12006;DHT22;6062;47.294;12.182;2023-04-25T05:08:57;2.40;66.60
12006;DHT22;6062;47.294;12.182;2023-04-25T05:11:23;2.50;66.60
12006;DHT22;6062;47.294;12.182;2023-04-25T05:13:52;2.50;66.50
12006;DHT22;6062;47.294;12.182;2023-04-25T05:16:18;2.60;66.50
12006;DHT22;6062;47.294;12.182;2023-04-25T05:18:44;2.60;66.40
12006;DHT22;6062;47.294;12.182;2023-04-25T05:21:09;2.70;66.40
12006;DHT22;6062;47.294;12.182;2023-04-25T05:23:35;2.70;66.30
12006;DHT22;6062;47.294;12.182;2023-04-25T05:26:01;2.70;66.10
12006;DHT22;6062;47.294;12.182;2023-04-25T05:28:27;2.80;66.10
12006;DHT22;6062;47.294;12.182;2023-04-25T05:30:52;2.80;66.10
12006;DHT22;6062;47.294;12.182;2023-04-25T05:33:18;2.90;66.10
12006;DHT22;6062;47.294;12.182;2023-04-25T05:35:44;3.00;66.00
12006;DHT22;6062;47.294;12.182;2023-04-25T05:38:10;3.10;65.80
12006;DHT22;6062;47.294;12.182;2023-04-25T05:40:36;3.10;65.60
12006;DHT22;6062;47.294;12.182;2023-04-25T05:43:02;3.20;65.60
12006;DHT22;6062;47.294;12.182;2023-04-25T05:45:28;3.20;65.50
12006;DHT22;6062;47.294;12.182;2023-04-25T05:47:54;3.30;65.60
12006;DHT22;6062;47.294;12.182;2023-04-25T05:50:19;3.40;65.60
12006;DHT22;6062;47.294;12.182;2023-04-25T05:52:45;3.50;65.70
12006;DHT22;6062;47.294;12.182;2023-04-25T05:55:11;3.60;65.60
12006;DHT22;6062;47.294;12.182;2023-04-25T05:57:37;3.70;65.40
12006;DHT22;6062;47.294;12.182;2023-04-25T06:00:03;3.80;64.80
12006;DHT22;6062;47.294;12.182;2023-04-25T06:02:34;3.90;64.20
12006;DHT22;6062;47.294;12.182;2023-04-25T06:04:59;4.00;63.70
12006;DHT22;6062;47.294;12.182;2023-04-25T06:07:28;4.10;63.90
12006;DHT22;6062;47.294;12.182;2023-04-25T06:09:55;4.20;64.40
12006;DHT22;6062;47.294;12.182;2023-04-25T06:12:21;4.40;64.40
12006;DHT22;6062;47.294;12.182;2023-04-25T06:14:47;4.50;64.00
12006;DHT22;6062;47.294;12.182;2023-04-25T06:17:12;4.70;63.60
12006;DHT22;6062;47.294;12.182;2023-04-25T06:19:38;4.80;63.50
12006;DHT22;6062;47.294;12.182;2023-04-25T06:22:04;4.90;64.00
12006;DHT22;6062;47.294;12.182;2023-04-25T06:24:30;5.00;63.10
12006;DHT22;6062;47.294;12.182;2023-04-25T06:26:55;5.10;62.80
12006;DHT22;6062;47.294;12.182;2023-04-25T06:29:22;5.10;62.60
12006;DHT22;6062;47.294;12.182;2023-04-25T06:31:47;5.20;62.50
12006;DHT22;6062;47.294;12.182;2023-04-25T06:34:13;5.30;62.40
12006;DHT22;6062;47.294;12.182;2023-04-25T06:36:39;5.40;62.20
12006;DHT22;6062;47.294;12.182;2023-04-25T06:39:06;5.40;62.00
12006;DHT22;6062;47.294;12.182;2023-04-25T06:41:33;5.50;62.00
12006;DHT22;6062;47.294;12.182;2023-04-25T06:43:58;5.60;62.20
12006;DHT22;6062;47.294;12.182;2023-04-25T06:46:24;5.80;63.10
12006;DHT22;6062;47.294;12.182;2023-04-25T06:48:50;6.00;63.00
12006;DHT22;6062;47.294;12.182;2023-04-25T06:51:16;6.30;62.70
12006;DHT22;6062;47.294;12.182;2023-04-25T06:53:42;6.50;62.80
12006;DHT22;6062;47.294;12.182;2023-04-25T06:56:07;6.80;62.60
12006;DHT22;6062;47.294;12.182;2023-04-25T06:58:33;7.20;62.70
12006;DHT22;6062;47.294;12.182;2023-04-25T07:00:59;7.50;62.40
12006;DHT22;6062;47.294;12.182;2023-04-25T07:03:24;7.80;62.00
12006;DHT22;6062;47.294;12.182;2023-04-25T07:05:50;8.10;61.70
12006;DHT22;6062;47.294;12.182;2023-04-25T07:08:16;8.40;61.30
12006;DHT22;6062;47.294;12.182;2023-04-25T07:10:42;8.80;61.10
12006;DHT22;6062;47.294;12.182;2023-04-25T07:13:08;9.20;60.00
12006;DHT22;6062;47.294;12.182;2023-04-25T07:15:35;9.70;59.40
12006;DHT22;6062;47.294;12.182;2023-04-25T07:18:00;10.10;59.20
12006;DHT22;6062;47.294;12.182;2023-04-25T07:20:26;10.70;59.00
12006;DHT22;6062;47.294;12.182;2023-04-25T07:22:53;11.20;57.90
12006;DHT22;6062;47.294;12.182;2023-04-25T07:25:19;11.80;57.00
12006;DHT22;6062;47.294;12.182;2023-04-25T07:27:45;12.40;55.90
12006;DHT22;6062;47.294;12.182;2023-04-25T07:30:11;12.90;54.40
12006;DHT22;6062;47.294;12.182;2023-04-25T07:32:38;13.40;52.30
12006;DHT22;6062;47.294;12.182;2023-04-25T07:35:05;13.80;51.20
12006;DHT22;6062;47.294;12.182;2023-04-25T07:37:33;14.00;50.20
12006;DHT22;6062;47.294;12.182;2023-04-25T07:40:03;14.20;49.20
12006;DHT22;6062;47.294;12.182;2023-04-25T07:42:29;14.40;48.90
12006;DHT22;6062;47.294;12.182;2023-04-25T07:44:57;14.50;48.90
12006;DHT22;6062;47.294;12.182;2023-04-25T07:47:22;14.70;48.20
12006;DHT22;6062;47.294;12.182;2023-04-25T07:49:48;14.90;47.70
12006;DHT22;6062;47.294;12.182;2023-04-25T07:52:14;15.00;47.30
12006;DHT22;6062;47.294;12.182;2023-04-25T07:54:40;15.10;45.10
12006;DHT22;6062;47.294;12.182;2023-04-25T07:57:05;14.90;44.60
12006;DHT22;6062;47.294;12.182;2023-04-25T07:59:34;14.70;44.70
12006;DHT22;6062;47.294;12.182;2023-04-25T08:02:00;14.60;45.10
12006;DHT22;6062;47.294;12.182;2023-04-25T08:04:27;14.50;45.40
12006;DHT22;6062;47.294;12.182;2023-04-25T08:06:54;14.30;45.60
12006;DHT22;6062;47.294;12.182;2023-04-25T08:09:20;14.20;43.90
12006;DHT22;6062;47.294;12.182;2023-04-25T08:11:46;13.80;43.80
12006;DHT22;6062;47.294;12.182;2023-04-25T08:14:12;13.40;44.10
12006;DHT22;6062;47.294;12.182;2023-04-25T08:16:39;13.00;43.60
12006;DHT22;6062;47.294;12.182;2023-04-25T08:19:05;12.40;43.30
12006;DHT22;6062;47.294;12.182;2023-04-25T08:21:31;11.80;43.50
12006;DHT22;6062;47.294;12.182;2023-04-25T08:23:57;11.10;44.20
12006;DHT22;6062;47.294;12.182;2023-04-25T08:26:24;10.30;45.20
12006;DHT22;6062;47.294;12.182;2023-04-25T08:28:50;9.50;46.30
12006;DHT22;6062;47.294;12.182;2023-04-25T08:31:16;8.80;47.60
12006;DHT22;6062;47.294;12.182;2023-04-25T08:33:42;8.10;48.80
12006;DHT22;6062;47.294;12.182;2023-04-25T08:36:08;7.60;50.80
12006;DHT22;6062;47.294;12.182;2023-04-25T08:38:34;7.00;51.10
12006;DHT22;6062;47.294;12.182;2023-04-25T08:41:00;6.50;52.00
12006;DHT22;6062;47.294;12.182;2023-04-25T08:43:28;6.20;53.10
12006;DHT22;6062;47.294;12.182;2023-04-25T08:45:58;5.90;55.10
12006;DHT22;6062;47.294;12.182;2023-04-25T08:48:29;5.70;55.70
12006;DHT22;6062;47.294;12.182;2023-04-25T08:50:58;5.70;56.70
12006;DHT22;6062;47.294;12.182;2023-04-25T08:53:32;5.80;56.90
12006;DHT22;6062;47.294;12.182;2023-04-25T08:56:00;6.00;56.90
12006;DHT22;6062;47.294;12.182;2023-04-25T08:58:31;6.00;56.70
12006;DHT22;6062;47.294;12.182;2023-04-25T09:00:57;6.10;57.10
12006;DHT22;6062;47.294;12.182;2023-04-25T09:03:23;6.20;57.40
12006;DHT22;6062;47.294;12.182;2023-04-25T09:05:49;6.40;57.80
12006;DHT22;6062;47.294;12.182;2023-04-25T09:08:15;6.60;58.10
12006;DHT22;6062;47.294;12.182;2023-04-25T09:10:41;6.90;58.10
12006;DHT22;6062;47.294;12.182;2023-04-25T09:13:14;7.30;58.10
12006;DHT22;6062;47.294;12.182;2023-04-25T09:15:50;7.70;57.60
12006;DHT22;6062;47.294;12.182;2023-04-25T09:20:52;8.50;56.10
12006;DHT22;6062;47.294;12.182;2023-04-25T09:23:19;8.80;55.60
12006;DHT22;6062;47.294;12.182;2023-04-25T09:25:52;9.10;54.60
12006;DHT22;6062;47.294;12.182;2023-04-25T09:28:26;9.40;53.80
12006;DHT22;6062;47.294;12.182;2023-04-25T09:30:56;9.70;53.30
12006;DHT22;6062;47.294;12.182;2023-04-25T09:33:33;9.90;53.10
12006;DHT22;6062;47.294;12.182;2023-04-25T09:36:07;10.10;52.60
12006;DHT22;6062;47.294;12.182;2023-04-25T09:38:42;10.30;52.70
12006;DHT22;6062;47.294;12.182;2023-04-25T09:41:10;10.50;52.30
12006;DHT22;6062;47.294;12.182;2023-04-25T09:43:37;10.80;52.00
12006;DHT22;6062;47.294;12.182;2023-04-25T09:46:09;11.00;51.80
12006;DHT22;6062;47.294;12.182;2023-04-25T09:48:36;11.30;51.50
12006;DHT22;6062;47.294;12.182;2023-04-25T09:51:13;11.50;51.90
12006;DHT22;6062;47.294;12.182;2023-04-25T09:53:41;11.90;50.50
12006;DHT22;6062;47.294;12.182;2023-04-25T09:56:10;12.20;49.90
12006;DHT22;6062;47.294;12.182;2023-04-25T09:58:39;12.50;48.90
12006;DHT22;6062;47.294;12.182;2023-04-25T10:01:09;12.70;48.20
12006;DHT22;6062;47.294;12.182;2023-04-25T10:03:37;12.90;47.70
12006;DHT22;6062;47.294;12.182;2023-04-25T10:06:16;13.10;46.60
12006;DHT22;6062;47.294;12.182;2023-04-25T10:08:45;13.20;46.20
12006;DHT22;6062;47.294;12.182;2023-04-25T10:11:17;13.20;45.50
12006;DHT22;6062;47.294;12.182;2023-04-25T10:13:43;13.30;45.00
12006;DHT22;6062;47.294;12.182;2023-04-25T10:16:11;13.20;44.80
12006;DHT22;6062;47.294;12.182;2023-04-25T10:18:37;13.20;44.30
12006;DHT22;6062;47.294;12.182;2023-04-25T10:21:04;13.10;44.00
12006;DHT22;6062;47.294;12.182;2023-04-25T10:23:31;13.00;43.80
12006;DHT22;6062;47.294;12.182;2023-04-25T10:26:00;12.90;43.80
12006;DHT22;6062;47.294;12.182;2023-04-25T10:28:26;12.80;43.30
12006;DHT22;6062;47.294;12.182;2023-04-25T10:31:04;12.70;43.80
12006;DHT22;6062;47.294;12.182;2023-04-25T10:33:37;12.60;42.80
12006;DHT22;6062;47.294;12.182;2023-04-25T10:36:14;12.40;42.10
12006;DHT22;6062;47.294;12.182;2023-04-25T10:38:44;12.20;41.10
12006;DHT22;6062;47.294;12.182;2023-04-25T10:41:12;11.90;41.30
12006;DHT22;6062;47.294;12.182;2023-04-25T10:43:42;11.60;41.10
12006;DHT22;6062;47.294;12.182;2023-04-25T10:46:25;11.30;40.70
12006;DHT22;6062;47.294;12.182;2023-04-25T10:54:01;10.40;44.30
12006;DHT22;6062;47.294;12.182;2023-04-25T10:56:32;10.50;43.90
12006;DHT22;6062;47.294;12.182;2023-04-25T10:59:11;10.50;43.00
12006;DHT22;6062;47.294;12.182;2023-04-25T11:02:01;10.50;43.00
12006;DHT22;6062;47.294;12.182;2023-04-25T11:04:38;10.60;43.70
12006;DHT22;6062;47.294;12.182;2023-04-25T11:10:28;10.90;45.30
12006;DHT22;6062;47.294;12.182;2023-04-25T11:12:58;11.30;45.70
12006;DHT22;6062;47.294;12.182;2023-04-25T11:15:25;11.70;45.70
12006;DHT22;6062;47.294;12.182;2023-04-25T11:17:52;12.10;45.90
12006;DHT22;6062;47.294;12.182;2023-04-25T11:20:18;12.60;45.40
12006;DHT22;6062;47.294;12.182;2023-04-25T11:22:46;13.10;44.40
12006;DHT22;6062;47.294;12.182;2023-04-25T11:25:14;13.60;43.20
12006;DHT22;6062;47.294;12.182;2023-04-25T11:27:51;14.00;41.60
12006;DHT22;6062;47.294;12.182;2023-04-25T11:30:18;14.30;40.60
12006;DHT22;6062;47.294;12.182;2023-04-25T11:32:45;14.50;40.90
12006;DHT22;6062;47.294;12.182;2023-04-25T11:35:11;14.70;41.00
12006;DHT22;6062;47.294;12.182;2023-04-25T11:37:42;15.00;40.60
12006;DHT22;6062;47.294;12.182;2023-04-25T11:40:09;15.20;39.60
12006;DHT22;6062;47.294;12.182;2023-04-25T11:42:37;15.30;39.10
12006;DHT22;6062;47.294;12.182;2023-04-25T11:45:04;15.50;38.40
12006;DHT22;6062;47.294;12.182;2023-04-25T11:47:32;15.50;38.20
12006;DHT22;6062;47.294;12.182;2023-04-25T11:49:59;15.50;38.50
12006;DHT22;6062;47.294;12.182;2023-04-25T11:52:40;15.50;38.10
12006;DHT22;6062;47.294;12.182;2023-04-25T11:55:13;15.50;37.70
12006;DHT22;6062;47.294;12.182;2023-04-25T11:57:42;15.40;38.00
12006;DHT22;6062;47.294;12.182;2023-04-25T12:00:20;15.30;38.50
12006;DHT22;6062;47.294;12.182;2023-04-25T12:02:51;15.20;38.90
12006;DHT22;6062;47.294;12.182;2023-04-25T12:05:18;15.10;39.20
12006;DHT22;6062;47.294;12.182;2023-04-25T12:07:46;15.10;39.70
12006;DHT22;6062;47.294;12.182;2023-04-25T12:10:14;15.00;39.90
12006;DHT22;6062;47.294;12.182;2023-04-25T12:12:42;14.90;40.30
12006;DHT22;6062;47.294;12.182;2023-04-25T12:15:12;14.90;40.60
12006;DHT22;6062;47.294;12.182;2023-04-25T12:17:49;14.90;40.50
12006;DHT22;6062;47.294;12.182;2023-04-25T12:20:18;14.90;40.40
12006;DHT22;6062;47.294;12.182;2023-04-25T12:22:52;14.90;40.60
12006;DHT22;6062;47.294;12.182;2023-04-25T12:25:40;14.90;40.70
12006;DHT22;6062;47.294;12.182;2023-04-25T12:28:21;14.70;39.80
12006;DHT22;6062;47.294;12.182;2023-04-25T12:33:27;14.30;40.30
12006;DHT22;6062;47.294;12.182;2023-04-25T12:35:55;14.00;40.90
12006;DHT22;6062;47.294;12.182;2023-04-25T12:40:54;13.70;41.40
12006;DHT22;6062;47.294;12.182;2023-04-25T12:43:20;13.60;41.50
12006;DHT22;6062;47.294;12.182;2023-04-25T12:45:54;13.50;41.50
12006;DHT22;6062;47.294;12.182;2023-04-25T12:48:21;13.40;41.60
12006;DHT22;6062;47.294;12.182;2023-04-25T12:50:48;13.30;42.00
12006;DHT22;6062;47.294;12.182;2023-04-25T12:53:16;13.20;42.00
12006;DHT22;6062;47.294;12.182;2023-04-25T12:55:46;13.10;42.10
12006;DHT22;6062;47.294;12.182;2023-04-25T12:58:16;13.00;42.40
12006;DHT22;6062;47.294;12.182;2023-04-25T13:00:44;12.90;42.30
12006;DHT22;6062;47.294;12.182;2023-04-25T13:03:10;12.80;42.30
12006;DHT22;6062;47.294;12.182;2023-04-25T13:05:38;12.70;42.30
12006;DHT22;6062;47.294;12.182;2023-04-25T13:08:04;12.50;42.30
12006;DHT22;6062;47.294;12.182;2023-04-25T13:10:30;12.30;42.30
12006;DHT22;6062;47.294;12.182;2023-04-25T13:12:56;12.10;42.60
12006;DHT22;6062;47.294;12.182;2023-04-25T13:15:22;11.90;42.80
12006;DHT22;6062;47.294;12.182;2023-04-25T13:17:48;11.60;42.90
12006;DHT22;6062;47.294;12.182;2023-04-25T13:20:14;11.30;43.00
12006;DHT22;6062;47.294;12.182;2023-04-25T13:22:41;11.00;43.20
12006;DHT22;6062;47.294;12.182;2023-04-25T13:25:08;10.70;43.60
12006;DHT22;6062;47.294;12.182;2023-04-25T13:27:35;10.40;44.20
12006;DHT22;6062;47.294;12.182;2023-04-25T13:30:05;10.10;44.90
12006;DHT22;6062;47.294;12.182;2023-04-25T13:32:34;9.80;44.50
12006;DHT22;6062;47.294;12.182;2023-04-25T13:35:02;9.60;44.60
12006;DHT22;6062;47.294;12.182;2023-04-25T13:37:30;9.40;44.70
12006;DHT22;6062;47.294;12.182;2023-04-25T13:40:00;9.20;46.40
12006;DHT22;6062;47.294;12.182;2023-04-25T13:42:29;9.10;46.20
12006;DHT22;6062;47.294;12.182;2023-04-25T13:44:55;9.20;46.40
12006;DHT22;6062;47.294;12.182;2023-04-25T13:47:22;9.30;46.10
12006;DHT22;6062;47.294;12.182;2023-04-25T13:49:48;9.40;46.00
12006;DHT22;6062;47.294;12.182;2023-04-25T13:52:15;9.50;45.80
12006;DHT22;6062;47.294;12.182;2023-04-25T13:54:40;9.70;45.60
12006;DHT22;6062;47.294;12.182;2023-04-25T13:57:06;9.80;45.50
12006;DHT22;6062;47.294;12.182;2023-04-25T13:59:32;10.00;45.20
12006;DHT22;6062;47.294;12.182;2023-04-25T14:01:58;10.10;44.70
12006;DHT22;6062;47.294;12.182;2023-04-25T14:04:24;10.20;44.30
12006;DHT22;6062;47.294;12.182;2023-04-25T14:06:50;10.20;44.30
12006;DHT22;6062;47.294;12.182;2023-04-25T14:09:17;10.20;44.10
12006;DHT22;6062;47.294;12.182;2023-04-25T14:11:43;10.20;43.90
12006;DHT22;6062;47.294;12.182;2023-04-25T14:14:09;10.20;43.90
12006;DHT22;6062;47.294;12.182;2023-04-25T14:16:35;10.10;43.80
12006;DHT22;6062;47.294;12.182;2023-04-25T14:19:01;10.10;44.00
12006;DHT22;6062;47.294;12.182;2023-04-25T14:21:27;10.00;44.00
12006;DHT22;6062;47.294;12.182;2023-04-25T14:23:53;10.00;43.90
12006;DHT22;6062;47.294;12.182;2023-04-25T14:26:19;9.90;44.00
12006;DHT22;6062;47.294;12.182;2023-04-25T14:28:45;9.90;44.20
12006;DHT22;6062;47.294;12.182;2023-04-25T14:31:11;9.90;44.40
12006;DHT22;6062;47.294;12.182;2023-04-25T14:33:36;9.90;44.20
12006;DHT22;6062;47.294;12.182;2023-04-25T14:36:05;9.80;43.90
12006;DHT22;6062;47.294;12.182;2023-04-25T14:38:31;9.80;43.50
12006;DHT22;6062;47.294;12.182;2023-04-25T14:40:56;9.70;43.80
12006;DHT22;6062;47.294;12.182;2023-04-25T14:43:22;9.70;44.10
12006;DHT22;6062;47.294;12.182;2023-04-25T14:45:48;9.60;44.60
12006;DHT22;6062;47.294;12.182;2023-04-25T14:48:14;9.50;44.60
12006;DHT22;6062;47.294;12.182;2023-04-25T14:50:40;9.30;45.40
12006;DHT22;6062;47.294;12.182;2023-04-25T14:53:06;9.10;46.20
12006;DHT22;6062;47.294;12.182;2023-04-25T14:55:32;8.90;46.70
12006;DHT22;6062;47.294;12.182;2023-04-25T14:57:57;8.60;46.40
12006;DHT22;6062;47.294;12.182;2023-04-25T15:00:23;8.30;46.50
12006;DHT22;6062;47.294;12.182;2023-04-25T15:02:50;8.00;46.90
12006;DHT22;6062;47.294;12.182;2023-04-25T15:05:16;7.80;47.20
12006;DHT22;6062;47.294;12.182;2023-04-25T15:07:43;7.50;47.50
12006;DHT22;6062;47.294;12.182;2023-04-25T15:10:09;7.30;47.60
12006;DHT22;6062;47.294;12.182;2023-04-25T15:12:41;6.90;47.90
12006;DHT22;6062;47.294;12.182;2023-04-25T15:15:08;6.60;48.60
12006;DHT22;6062;47.294;12.182;2023-04-25T15:17:40;6.40;49.50
12006;DHT22;6062;47.294;12.182;2023-04-25T15:20:08;6.20;50.60
12006;DHT22;6062;47.294;12.182;2023-04-25T15:22:39;6.10;51.20
12006;DHT22;6062;47.294;12.182;2023-04-25T15:25:06;6.00;52.10
12006;DHT22;6062;47.294;12.182;2023-04-25T15:27:33;6.00;52.10
12006;DHT22;6062;47.294;12.182;2023-04-25T15:30:05;5.90;52.50
12006;DHT22;6062;47.294;12.182;2023-04-25T15:32:36;5.90;52.90
12006;DHT22;6062;47.294;12.182;2023-04-25T15:35:04;6.00;53.10
12006;DHT22;6062;47.294;12.182;2023-04-25T15:37:32;6.10;53.50
12006;DHT22;6062;47.294;12.182;2023-04-25T15:40:10;6.10;53.90
12006;DHT22;6062;47.294;12.182;2023-04-25T15:42:40;6.20;53.70
12006;DHT22;6062;47.294;12.182;2023-04-25T15:45:09;6.30;53.30
12006;DHT22;6062;47.294;12.182;2023-04-25T15:47:37;6.40;53.30
12006;DHT22;6062;47.294;12.182;2023-04-25T15:50:04;6.50;53.20
12006;DHT22;6062;47.294;12.182;2023-04-25T15:52:33;6.60;53.30
12006;DHT22;6062;47.294;12.182;2023-04-25T15:54:59;6.70;53.00
12006;DHT22;6062;47.294;12.182;2023-04-25T15:57:34;6.70;52.50